Time,TemperatureF,DewpointF,PressureIn,WindDirection,WindDirectionDegrees,WindSpeedMPH,WindSpeedGustMPH,Humidity,HourlyPrecipIn,Conditions,Clouds,dailyrainin,SoftwareType,DateUTC
2013-02-24 00:01:00,21.0,18.0,29.98,SW,232,2.0,4.0,89,0.00,,,0.00,,2013-02-24 06:01:00,
2013-02-24 00:11:00,21.0,18.0,29.98,SW,232,2.0,4.0,89,0.00,,,0.00,,2013-02-24 06:11:00,
2013-02-24 00:21:00,21.0,18.0,29.98,SW,233,3.0,6.0,89,0.00,,,0.00,,2013-02-24 06:21:00,
2013-02-24 00:31:00,21.0,18.0,29.98,SW,233,3.0,6.0,89,0.00,,,0.00,,2013-02-24 06:31:00,
2013-02-24 00:42:00,21.0,18.0,29.98,SW,233,3.0,6.0,89,0.00,,,0.00,,2013-02-24 06:42:00,
2013-02-24 00:52:00,22.0,19.0,29.98,WSW,252,3.0,8.0,87,0.00,,,0.00,,2013-02-24 06:52:00,
2013-02-24 01:01:00,22.0,18.0,29.98,WSW,252,1.0,5.0,86,0.00,,,0.00,,2013-02-24 07:01:00,
2013-02-24 01:12:00,22.0,18.0,29.98,WSW,252,1.0,5.0,86,0.00,,,0.00,,2013-02-24 07:12:00,
2013-02-24 01:21:00,21.0,18.0,29.98,WSW,252,2.0,4.0,87,0.00,,,0.00,,2013-02-24 07:21:00,
2013-02-24 01:31:00,21.0,18.0,29.99,WSW,252,5.0,7.0,87,0.00,,,0.00,,2013-02-24 07:31:00,
2013-02-24 01:42:00,21.0,18.0,29.99,WSW,252,5.0,7.0,87,0.00,,,0.00,,2013-02-24 07:42:00,
2013-02-24 01:51:00,21.0,18.0,29.99,WSW,252,1.0,5.0,87,0.00,,,0.00,,2013-02-24 07:51:00,
2013-02-24 02:01:00,21.0,18.0,30.00,WSW,252,2.0,5.0,87,0.00,,,0.00,,2013-02-24 08:01:00,
2013-02-24 02:11:00,21.0,18.0,30.00,WSW,252,2.0,5.0,87,0.00,,,0.00,,2013-02-24 08:11:00,
2013-02-24 02:22:00,20.0,17.0,30.00,WSW,252,2.0,6.0,87,0.00,,,0.00,,2013-02-24 08:22:00,
2013-02-24 02:31:00,20.0,17.0,30.00,WSW,252,5.0,7.0,87,0.00,,,0.00,,2013-02-24 08:31:00,
2013-02-24 02:42:00,20.0,17.0,30.00,WSW,252,5.0,7.0,87,0.00,,,0.00,,2013-02-24 08:42:00,
2013-02-24 02:53:00,20.0,17.0,30.01,WSW,252,3.0,6.0,87,0.00,,,0.00,,2013-02-24 08:53:00,
2013-02-24 03:01:00,19.0,16.0,30.01,WSW,252,0.0,4.0,87,0.00,,,0.00,,2013-02-24 09:01:00,
2013-02-24 03:11:00,19.0,16.0,30.01,WSW,252,0.0,4.0,87,0.00,,,0.00,,2013-02-24 09:11:00,
2013-02-24 03:21:00,19.0,16.0,30.01,WSW,252,0.0,3.0,87,0.00,,,0.00,,2013-02-24 09:21:00,
2013-02-24 03:31:00,19.0,16.0,30.01,WSW,252,0.0,3.0,87,0.00,,,0.00,,2013-02-24 09:31:00,
2013-02-24 03:41:00,19.0,16.0,30.01,WSW,252,0.0,3.0,87,0.00,,,0.00,,2013-02-24 09:41:00,
2013-02-24 03:51:00,19.0,16.0,30.01,WSW,252,0.0,4.0,88,0.00,,,0.00,,2013-02-24 09:51:00,
2013-02-24 04:01:00,18.0,15.0,30.01,WSW,252,0.0,0.0,87,0.00,,,0.00,,2013-02-24 10:01:00,
2013-02-24 04:11:00,18.0,15.0,30.01,WSW,252,0.0,0.0,87,0.00,,,0.00,,2013-02-24 10:11:00,
2013-02-24 04:21:00,18.0,15.0,30.02,WSW,252,0.0,0.0,88,0.00,,,0.00,,2013-02-24 10:21:00,
2013-02-24 04:32:00,18.0,15.0,30.02,WSW,252,0.0,0.0,88,0.00,,,0.00,,2013-02-24 10:32:00,
2013-02-24 04:41:00,18.0,15.0,30.02,WSW,252,0.0,0.0,88,0.00,,,0.00,,2013-02-24 10:41:00,
2013-02-24 04:51:00,18.0,15.0,30.02,WSW,252,0.0,0.0,88,0.00,,,0.00,,2013-02-24 10:51:00,
2013-02-24 05:01:00,18.0,15.0,30.02,WSW,252,0.0,0.0,88,0.00,,,0.00,,2013-02-24 11:01:00,
2013-02-24 05:11:00,18.0,15.0,30.02,WSW,252,0.0,0.0,88,0.00,,,0.00,,2013-02-24 11:11:00,
2013-02-24 05:21:00,18.0,15.0,30.03,WSW,252,0.0,0.0,88,0.00,,,0.00,,2013-02-24 11:21:00,
2013-02-24 05:32:00,18.0,15.0,30.04,WSW,252,2.0,5.0,88,0.00,,,0.00,,2013-02-24 11:32:00,
2013-02-24 05:41:00,18.0,15.0,30.04,WSW,252,2.0,5.0,88,0.00,,,0.00,,2013-02-24 11:41:00,
2013-02-24 05:52:00,18.0,15.0,30.05,WSW,252,0.0,0.0,88,0.00,,,0.00,,2013-02-24 11:52:00,
2013-02-24 06:01:00,18.0,15.0,30.05,WSW,252,0.0,0.0,88,0.00,,,0.00,,2013-02-24 12:01:00,
2013-02-24 06:11:00,18.0,15.0,30.05,WSW,252,0.0,0.0,88,0.00,,,0.00,,2013-02-24 12:11:00,
2013-02-24 06:21:00,18.0,15.0,30.05,WSW,252,0.0,0.0,88,0.00,,,0.00,,2013-02-24 12:21:00,
2013-02-24 06:32:00,18.0,15.0,30.05,WSW,252,0.0,0.0,88,0.00,,,0.00,,2013-02-24 12:32:00,
2013-02-24 06:46:00,18.0,15.0,30.05,WSW,252,0.0,0.0,88,0.00,,,0.00,,2013-02-24 12:46:00,
2013-02-24 06:55:00,17.0,14.0,30.06,WSW,252,0.0,0.0,88,0.00,,,0.00,,2013-02-24 12:55:00,
2013-02-24 07:11:00,17.0,14.0,30.07,WSW,252,0.0,0.0,88,0.00,,,0.00,,2013-02-24 13:11:00,
2013-02-24 07:26:00,17.0,14.0,30.07,WSW,252,0.0,0.0,88,0.00,,,0.00,,2013-02-24 13:26:00,
2013-02-24 07:33:00,18.0,15.0,30.08,WSW,252,0.0,0.0,89,0.00,,,0.00,,2013-02-24 13:33:00,
2013-02-24 07:44:00,18.0,15.0,30.08,WSW,252,0.0,0.0,89,0.00,,,0.00,,2013-02-24 13:44:00,
2013-02-24 07:52:00,19.0,18.0,30.09,WSW,252,0.0,3.0,97,0.00,,,0.00,,2013-02-24 13:52:00,
2013-02-24 08:04:00,21.0,18.0,30.09,WSW,252,0.0,0.0,89,0.00,,,0.00,,2013-02-24 14:04:00,
2013-02-24 08:13:00,22.0,19.0,30.09,WSW,252,2.0,4.0,89,0.00,,,0.00,,2013-02-24 14:13:00,
2013-02-24 08:24:00,22.0,19.0,30.09,WSW,252,2.0,4.0,89,0.00,,,0.00,,2013-02-24 14:24:00,
2013-02-24 08:33:00,23.0,20.0,30.10,WSW,252,4.0,6.0,88,0.00,,,0.00,,2013-02-24 14:33:00,
2013-02-24 08:44:00,23.0,20.0,30.10,WSW,252,4.0,6.0,88,0.00,,,0.00,,2013-02-24 14:44:00,
2013-02-24 08:53:00,24.0,21.0,30.10,WSW,252,0.0,5.0,87,0.00,,,0.00,,2013-02-24 14:53:00,
2013-02-24 09:13:00,25.0,20.0,30.11,West,267,3.0,7.0,82,0.00,,,0.00,,2013-02-24 15:13:00,
2013-02-24 09:23:00,25.0,20.0,30.11,West,267,3.0,7.0,82,0.00,,,0.00,,2013-02-24 15:23:00,
2013-02-24 09:32:00,26.0,21.0,30.11,WNW,282,0.0,6.0,82,0.00,,,0.00,,2013-02-24 15:32:00,
2013-02-24 09:42:00,26.0,21.0,30.11,WNW,282,0.0,6.0,82,0.00,,,0.00,,2013-02-24 15:42:00,
2013-02-24 09:52:00,27.0,22.0,30.11,WNW,282,1.0,5.0,81,0.01,,,0.01,,2013-02-24 15:52:00,
2013-02-24 10:01:00,27.0,22.0,30.12,WNW,282,0.0,3.0,80,0.01,,,0.01,,2013-02-24 16:01:00,
2013-02-24 10:11:00,27.0,22.0,30.12,WNW,282,0.0,3.0,80,0.01,,,0.01,,2013-02-24 16:11:00,
2013-02-24 10:21:00,28.0,22.0,30.12,WNW,282,0.0,0.0,79,0.01,,,0.01,,2013-02-24 16:21:00,
2013-02-24 10:32:00,29.0,23.0,30.13,WNW,282,0.0,2.0,78,0.01,,,0.01,,2013-02-24 16:32:00,
2013-02-24 10:41:00,29.0,23.0,30.13,WNW,282,0.0,2.0,78,0.01,,,0.01,,2013-02-24 16:41:00,
2013-02-24 10:52:00,30.0,24.0,30.13,WNW,282,0.0,3.0,77,0.00,,,0.01,,2013-02-24 16:52:00,
2013-02-24 11:01:00,31.0,24.0,30.13,WNW,282,0.0,4.0,74,0.00,,,0.01,,2013-02-24 17:01:00,
2013-02-24 11:11:00,31.0,24.0,30.13,WNW,282,0.0,4.0,74,0.00,,,0.01,,2013-02-24 17:11:00,
2013-02-24 11:21:00,31.0,24.0,30.13,WNW,282,0.0,4.0,75,0.00,,,0.01,,2013-02-24 17:21:00,
2013-02-24 11:32:00,32.0,25.0,30.13,WNW,282,1.0,5.0,74,0.00,,,0.01,,2013-02-24 17:32:00,
2013-02-24 11:41:00,32.0,25.0,30.13,WNW,282,1.0,5.0,74,0.00,,,0.01,,2013-02-24 17:41:00,
2013-02-24 11:52:00,31.0,24.0,30.13,SW,223,0.0,6.0,75,0.00,,,0.01,,2013-02-24 17:52:00,
2013-02-24 12:01:00,31.0,24.0,30.13,SW,223,0.0,6.0,75,0.00,,,0.01,,2013-02-24 18:01:00,
2013-02-24 12:11:00,31.0,24.0,30.13,SW,223,0.0,6.0,75,0.00,,,0.01,,2013-02-24 18:11:00,
2013-02-24 12:22:00,33.0,25.0,30.12,SW,224,0.0,2.0,73,0.00,,,0.01,,2013-02-24 18:22:00,
2013-02-24 12:32:00,34.0,25.0,30.11,SW,224,0.0,0.0,70,0.00,,,0.01,,2013-02-24 18:32:00,
2013-02-24 12:42:00,34.0,25.0,30.11,SW,224,0.0,0.0,70,0.00,,,0.01,,2013-02-24 18:42:00,
2013-02-24 12:51:00,35.0,26.0,30.11,SW,224,0.0,0.0,69,0.00,,,0.01,,2013-02-24 18:51:00,
2013-02-24 13:01:00,35.0,26.0,30.11,SW,224,2.0,5.0,68,0.00,,,0.01,,2013-02-24 19:01:00,
2013-02-24 13:11:00,35.0,26.0,30.11,SW,224,2.0,5.0,68,0.00,,,0.01,,2013-02-24 19:11:00,
2013-02-24 13:22:00,35.0,25.0,30.11,SW,224,0.0,5.0,67,0.00,,,0.01,,2013-02-24 19:22:00,
2013-02-24 13:32:00,35.0,25.0,30.11,SW,224,0.0,4.0,66,0.00,,,0.01,,2013-02-24 19:32:00,
2013-02-24 13:41:00,35.0,25.0,30.11,SW,224,0.0,4.0,66,0.00,,,0.01,,2013-02-24 19:41:00,
2013-02-24 13:51:00,36.0,25.0,30.10,SW,224,0.0,5.0,65,0.00,,,0.01,,2013-02-24 19:51:00,
2013-02-24 14:02:00,36.0,26.0,30.10,SW,224,3.0,6.0,66,0.00,,,0.01,,2013-02-24 20:02:00,
2013-02-24 14:11:00,36.0,26.0,30.10,SW,224,3.0,6.0,66,0.00,,,0.01,,2013-02-24 20:11:00,
2013-02-24 14:21:00,36.0,27.0,30.10,South,190,3.0,6.0,69,0.00,,,0.01,,2013-02-24 20:21:00,
2013-02-24 14:32:00,37.0,28.0,30.10,SSW,194,3.0,7.0,70,0.00,,,0.01,,2013-02-24 20:32:00,
2013-02-24 14:41:00,37.0,28.0,30.10,SSW,194,3.0,7.0,70,0.00,,,0.01,,2013-02-24 20:41:00,
2013-02-24 14:52:00,36.0,27.0,30.10,SSW,206,1.0,7.0,69,0.00,,,0.01,,2013-02-24 20:52:00,
2013-02-24 15:01:00,36.0,26.0,30.10,SSW,213,2.0,7.0,67,0.00,,,0.01,,2013-02-24 21:01:00,
2013-02-24 15:11:00,36.0,26.0,30.10,SSW,213,2.0,7.0,67,0.00,,,0.01,,2013-02-24 21:11:00,
2013-02-24 15:21:00,37.0,27.0,30.11,SSW,213,0.0,6.0,68,0.00,,,0.01,,2013-02-24 21:21:00,
2013-02-24 15:32:00,37.0,26.0,30.10,SSW,213,1.0,4.0,65,0.00,,,0.01,,2013-02-24 21:32:00,
2013-02-24 15:42:00,37.0,26.0,30.10,SSW,213,1.0,4.0,65,0.00,,,0.01,,2013-02-24 21:42:00,
2013-02-24 15:52:00,37.0,26.0,30.10,SSW,205,1.0,5.0,64,0.00,,,0.01,,2013-02-24 21:52:00,
2013-02-24 16:01:00,37.0,27.0,30.10,SSW,205,0.0,4.0,67,0.00,,,0.01,,2013-02-24 22:01:00,
2013-02-24 16:11:00,37.0,27.0,30.10,SSW,205,0.0,4.0,67,0.00,,,0.01,,2013-02-24 22:11:00,
2013-02-24 16:21:00,37.0,26.0,30.10,SSW,205,0.0,0.0,65,0.00,,,0.01,,2013-02-24 22:21:00,
2013-02-24 16:31:00,37.0,26.0,30.10,SSW,205,0.0,0.0,65,0.00,,,0.01,,2013-02-24 22:31:00,
2013-02-24 16:41:00,37.0,26.0,30.10,SSW,205,0.0,0.0,65,0.00,,,0.01,,2013-02-24 22:41:00,
2013-02-24 16:51:00,37.0,26.0,30.10,SSW,205,0.0,0.0,65,0.00,,,0.01,,2013-02-24 22:51:00,
2013-02-24 17:02:00,37.0,26.0,30.09,SSW,205,0.0,0.0,65,0.00,,,0.01,,2013-02-24 23:02:00,
2013-02-24 17:11:00,37.0,26.0,30.09,SSW,205,0.0,0.0,65,0.00,,,0.01,,2013-02-24 23:11:00,
2013-02-24 17:21:00,36.0,28.0,30.09,SSW,205,0.0,0.0,73,0.00,,,0.01,,2013-02-24 23:21:00,
2013-02-24 17:31:00,35.0,29.0,30.09,SSW,205,0.0,0.0,77,0.00,,,0.01,,2013-02-24 23:31:00,
2013-02-24 17:41:00,35.0,29.0,30.09,SSW,205,0.0,0.0,77,0.00,,,0.01,,2013-02-24 23:41:00,
2013-02-24 17:52:00,35.0,29.0,30.09,SSW,205,0.0,0.0,77,0.00,,,0.01,,2013-02-24 23:52:00,
2013-02-24 18:01:00,33.0,27.0,30.10,SSW,205,0.0,3.0,78,0.00,,,0.01,,2013-02-25 00:01:00,
2013-02-24 18:11:00,33.0,27.0,30.10,SSW,205,0.0,3.0,78,0.00,,,0.01,,2013-02-25 00:11:00,
2013-02-24 18:21:00,32.0,27.0,30.10,SSW,205,0.0,0.0,80,0.00,,,0.01,,2013-02-25 00:21:00,
2013-02-24 18:32:00,32.0,27.0,30.10,SSW,205,0.0,0.0,80,0.00,,,0.01,,2013-02-25 00:32:00,
2013-02-24 18:42:00,32.0,27.0,30.10,SSW,205,0.0,0.0,80,0.00,,,0.01,,2013-02-25 00:42:00,
2013-02-24 18:51:00,31.0,26.0,30.11,SSW,205,0.0,0.0,83,0.00,,,0.01,,2013-02-25 00:51:00,
2013-02-24 19:01:00,31.0,26.0,30.11,SSW,205,0.0,0.0,83,0.00,,,0.01,,2013-02-25 01:01:00,
2013-02-24 19:11:00,31.0,26.0,30.11,SSW,205,0.0,0.0,83,0.00,,,0.01,,2013-02-25 01:11:00,
2013-02-24 19:21:00,31.0,27.0,30.11,SSW,205,0.0,0.0,85,0.00,,,0.01,,2013-02-25 01:21:00,
2013-02-24 19:32:00,31.0,28.0,30.11,SSW,205,0.0,0.0,89,0.00,,,0.01,,2013-02-25 01:32:00,
2013-02-24 19:42:00,31.0,28.0,30.11,SSW,205,0.0,0.0,89,0.00,,,0.01,,2013-02-25 01:42:00,
2013-02-24 19:51:00,31.0,26.0,30.11,SSW,205,0.0,0.0,82,0.00,,,0.01,,2013-02-25 01:51:00,
2013-02-24 20:01:00,32.0,26.0,30.11,SSW,205,0.0,0.0,78,0.00,,,0.01,,2013-02-25 02:01:00,
2013-02-24 20:11:00,32.0,26.0,30.11,SSW,205,0.0,0.0,78,0.00,,,0.01,,2013-02-25 02:11:00,
2013-02-24 20:21:00,32.0,26.0,30.11,SSW,205,0.0,0.0,79,0.00,,,0.01,,2013-02-25 02:21:00,
2013-02-24 20:31:00,31.0,26.0,30.11,SSW,205,0.0,0.0,80,0.00,,,0.01,,2013-02-25 02:31:00,
2013-02-24 20:41:00,31.0,26.0,30.11,SSW,205,0.0,0.0,80,0.00,,,0.01,,2013-02-25 02:41:00,
2013-02-24 20:52:00,32.0,26.0,30.11,SSW,205,0.0,0.0,78,0.00,,,0.01,,2013-02-25 02:52:00,
2013-02-24 21:01:00,31.0,25.0,30.11,SSW,205,0.0,0.0,79,0.00,,,0.01,,2013-02-25 03:01:00,
2013-02-24 21:11:00,31.0,25.0,30.11,SSW,205,0.0,0.0,79,0.00,,,0.01,,2013-02-25 03:11:00,
2013-02-24 21:21:00,31.0,26.0,30.11,SSW,205,0.0,0.0,81,0.00,,,0.01,,2013-02-25 03:21:00,
2013-02-24 21:31:00,30.0,25.0,30.11,SSW,205,0.0,0.0,82,0.00,,,0.01,,2013-02-25 03:31:00,
2013-02-24 21:41:00,30.0,25.0,30.11,SSW,205,0.0,0.0,82,0.00,,,0.01,,2013-02-25 03:41:00,
2013-02-24 21:51:00,30.0,26.0,30.11,SSW,205,0.0,0.0,84,0.00,,,0.01,,2013-02-25 03:51:00,
2013-02-24 22:01:00,30.0,26.0,30.12,SSW,205,0.0,0.0,85,0.00,,,0.01,,2013-02-25 04:01:00,
2013-02-24 22:11:00,30.0,26.0,30.12,SSW,205,0.0,0.0,85,0.00,,,0.01,,2013-02-25 04:11:00,
2013-02-24 22:21:00,30.0,26.0,30.12,SSW,205,0.0,0.0,85,0.00,,,0.01,,2013-02-25 04:21:00,
2013-02-24 22:31:00,29.0,26.0,30.11,SSW,205,0.0,0.0,87,0.00,,,0.01,,2013-02-25 04:31:00,
2013-02-24 22:41:00,29.0,26.0,30.11,SSW,205,0.0,0.0,87,0.00,,,0.01,,2013-02-25 04:41:00,
2013-02-24 22:52:00,29.0,26.0,30.12,SSW,205,0.0,0.0,88,0.00,,,0.01,,2013-02-25 04:52:00,
2013-02-24 23:01:00,29.0,26.0,30.12,SSW,205,0.0,0.0,87,0.00,,,0.01,,2013-02-25 05:01:00,
2013-02-24 23:11:00,29.0,26.0,30.12,SSW,205,0.0,0.0,87,0.00,,,0.01,,2013-02-25 05:11:00,
2013-02-24 23:22:00,29.0,25.0,30.12,SSW,205,0.0,0.0,86,0.00,,,0.01,,2013-02-25 05:22:00,
2013-02-24 23:31:00,29.0,25.0,30.11,SSW,205,0.0,0.0,86,0.00,,,0.01,,2013-02-25 05:31:00,
2013-02-24 23:42:00,29.0,25.0,30.11,SSW,205,0.0,0.0,86,0.00,,,0.01,,2013-02-25 05:42:00,
2013-02-24 23:52:00,28.0,25.0,30.11,SSW,205,0.0,0.0,87,0.00,,,0.01,,2013-02-25 05:52:00,